Кневичи

Карта отелей и гостиниц, располагающихся рядом с аэропортом Кневичи :



Кневичи
Владивосток
Приморский край 43° 23' 56.2812" N, 132° 8' 52.8" E
Код аэродрома ИКАО: 
UHWW
Код аэродрома RU: 
УХВВ
Координаты: 
N43.39897° E132.14800°
Превышение над уровнем моря : 
14
Основная полоса: 
07R/25L
Курс магнитный: 
071,2/251,2
Длина основной ВПП: 
3529
Ширина основной ВПП: 
60
Покрытие основной ВПП: 
Твёрдое (бетон)
Тип: 
Аэродром
Освещение ВПП: 
Постоянное
Класс аэродрома: 
Международный
Статус: 
Действующий
Принадлежность: 
ГА
Сайт: 
vvo.aero
Страна: 
Россия
Регион: 
Приморский край
Город: 
Владивосток
Дополнительная информация: 
Военный индекс: ЬХВВ/XHWW. Горный. Оператор: ОАО «Международный аэропорт Владивосток» (МАВ). Нкр.=(1500)м, обслуживает ВС до 182 тонн.
Схемы аэропортов: 
Погода: 

Авиационная погода в Кневичи

Регион: 
Погода METAR: 
UHWW 311000Z 15005MPS 9999 SCT011 OVC026 07/04 Q1014 R25L/0///70 NOSIG RMK QFE759
Время наблюдения: 
2020-03-31T10:00:00Z
Температура C: 
7.0
Точка росы: 
4.0
Направление ветра: 
150
Скорость ветра: 
10
Метеорологическая видимость: 
6.21
Условия полета: 
MVFR
Аэропорт подробнее: 

Найти трансфер

С помощью этой формы Вы можете найти трансфер из аэропорта Кневичи в город, аэропорт или вокзал:

Карта места

Javascript is required to view this map.

Погода в аэропортах:

Авиационная погода в Калуге (Грабцево)

Регион: 
Погода METAR: 
UUBC 311000Z 33008MPS 2000 R31/2000D SHSN BKN015 OVC026CB M03/M06 Q1012 R31/490238 TEMPO 0900 +SHSN BKN007CB RMK QFE742/0989
Время наблюдения: 
2020-03-31T10:00:00Z
Температура C: 
-3.0
Точка росы: 
-6.0
Направление ветра: 
330
Скорость ветра: 
16
Метеорологическая видимость: 
1.24
Явления погоды: 
SHSN
Условия полета: 
IFR

Авиационная погода в Москва - Шереметьево

Регион: 
Погода METAR: 
UUEE 311000Z 01006MPS 330V050 2200 -SN OVC017 M04/M05 Q1012 R06R/590245 R06L/550240 TEMPO 0700 +SHSN BKN011CB
Время наблюдения: 
2020-03-31T10:00:00Z
Температура C: 
-4.0
Точка росы: 
-5.0
Направление ветра: 
10
Скорость ветра: 
12
Метеорологическая видимость: 
1.37
Явления погоды: 
-SN
Условия полета: 
IFR
Аэропорт подробнее: 

Авиационная погода в Киркенесе

Регион: 
Погода METAR: 
ENKR 310950Z 15016KT 6000 -SHSN BKN016 M06/M10 Q0995 RMK WIND 731FT 13027KT
Время наблюдения: 
2020-03-31T09:50:00Z
Температура C: 
-6.0
Точка росы: 
-10.0
Направление ветра: 
150
Скорость ветра: 
16
Метеорологическая видимость: 
3.73
Явления погоды: 
-SHSN
Условия полета: 
MVFR

Авиационная погода в Вардё

Регион: 
Погода METAR: 
ENSS 230220Z 27030KT 9999 DRSN NSC M02/M04 Q1010 RMK WIND 500FT 27043KT
Время наблюдения: 
2020-03-23T02:20:00Z
Температура C: 
-2.0
Точка росы: 
-4.0
Направление ветра: 
270
Скорость ветра: 
30
Метеорологическая видимость: 
6.21
Явления погоды: 
DRSN
Условия полета: 
VFR